Time;durP1;ratioP1;P1;durP2;ratioP2;P2;SDS_P1;SDS_P2;PMS_P1;PMS_P2;Temp;Humidity;BMP_temperature;BMP_pressure;BME280_temperature;BME280_humidity;BME280_pressure;Samples;Min_cycle;Max_cycle;Signal;HPM_P1;HPM_P2
2021/06/08 00:37:02;;;;;;;21.73;16.42;;;;;;;14.73;85.20;93847.06;6106005;23;20012;-90
2021/06/08 01:00:49;;;;;;;18.43;16.63;;;;;;;14.56;84.61;93817.81;5943069;24;20114;-88
2021/06/08 01:03:43;;;;;;;18.38;16.63;;;;;;;14.90;84.93;93871.03;5865085;24;20358;-89
2021/06/08 01:06:09;;;;;;;18.73;16.38;;;;;;;14.63;84.88;93826.88;5771746;24;20179;-87
2021/06/08 01:08:34;;;;;;;19.23;17.23;;;;;;;14.62;85.34;93830.63;5975002;23;20395;-89
2021/06/08 01:18:25;;;;;;;20.02;16.42;;;;;;;14.86;84.74;93864.72;5081991;24;10375254;-89
2021/06/08 01:21:47;;;;;;;20.38;18.27;;;;;;;14.76;85.53;93867.69;5678332;24;20186;-89
2021/06/08 01:39:31;;;;;;;25.23;20.67;;;;;;;14.80;85.38;93860.69;5723330;25;20152;-88
2021/06/08 01:41:57;;;;;;;25.05;21.45;;;;;;;14.63;85.99;93839.38;5631476;24;20149;-88
2021/06/08 02:02:29;;;;;;;;;;;;;;;;;;;;;
2021/06/08 02:05:19;;;;;;;30.38;24.38;;;;;;;15.26;85.73;93860.03;5765931;24;20019;-88
2021/06/08 02:08:21;;;;;;;51.15;36.83;;;;;;;15.17;86.11;93868.03;5813373;23;20016;-89
2021/06/08 02:11:31;;;;;;;58.20;42.03;;;;;;;14.84;86.57;93813.72;5846553;24;20075;-88
2021/06/08 02:20:50;;;;;;;;;;;;;;;;;;;;;
2021/06/08 02:24:02;;;;;;;39.55;30.27;;;;;;;15.19;85.12;93827.78;5918898;24;20035;-88
2021/06/08 02:26:31;;;;;;;40.25;29.50;;;;;;;15.50;84.89;93862.94;5868791;23;20275;-88
2021/06/08 02:28:58;;;;;;;36.05;30.45;;;;;;;15.34;84.82;93834.50;6061927;23;20026;-87
2021/06/08 02:31:25;;;;;;;33.47;29.50;;;;;;;15.45;85.20;93870.31;6082681;23;20041;-88
2021/06/08 02:33:51;;;;;;;38.95;30.95;;;;;;;15.31;84.90;93853.75;6112268;23;20040;-89
2021/06/08 02:36:18;;;;;;;43.97;33.00;;;;;;;15.28;85.43;93857.06;6108988;23;20020;-88
2021/06/08 02:52:46;;;;;;;;;;;;;;;;;;;;;
2021/06/08 02:59:34;;;;;;;34.20;26.25;;;;;;;15.59;82.89;93877.06;5718007;24;20014;-88
2021/06/08 03:02:52;;;;;;;87.90;43.17;;;;;;;15.20;83.44;93831.22;5676686;24;20071;-89
2021/06/08 03:06:15;;;;;;;;;;;;;;;;;;;;;
2021/06/08 03:09:46;;;;;;;55.58;28.52;;;;;;;15.25;85.07;93887.72;5728745;24;20084;-89
2021/06/08 03:12:56;;;;;;;28.80;25.60;;;;;;;14.73;85.11;93853.16;5404708;24;5505171;-89
2021/06/08 03:16:26;;;;;;;;;;;;;;;;;;;;;
2021/06/08 03:19:28;;;;;;;19.70;16.42;;;;;;;15.12;82.84;93884.16;5707369;25;20052;-89
2021/06/08 03:37:03;;;;;;;12.77;11.65;;;;;;;16.53;77.07;93850.31;5710827;24;20777;-89
2021/06/08 03:40:07;;;;;;;11.13;9.93;;;;;;;17.11;75.04;93876.13;5613735;24;1583215;-88
2021/06/08 03:42:45;;;;;;;11.80;10.57;;;;;;;17.20;73.74;93842.13;5789576;24;20079;-89
2021/06/08 03:45:20;;;;;;;13.10;11.00;;;;;;;17.49;72.52;93866.06;5850216;24;20548;-88
2021/06/08 03:47:46;;;;;;;13.15;11.88;;;;;;;17.56;70.91;93850.25;5904133;24;20024;-89
2021/06/08 03:50:15;;;;;;;15.38;13.10;;;;;;;17.76;70.51;93875.38;5940364;24;20032;-87
2021/06/08 03:52:50;;;;;;;30.88;13.80;;;;;;;17.68;71.21;93895.75;5940730;24;20104;-89
2021/06/08 03:55:18;;;;;;;15.13;12.98;;;;;;;17.55;71.66;93917.38;6104034;23;20045;-89
2021/06/08 03:57:47;;;;;;;16.17;14.02;;;;;;;17.34;72.93;93901.41;6091540;23;20002;-88
2021/06/08 04:00:15;;;;;;;28.05;22.20;;;;;;;17.54;73.51;93916.63;6078559;23;20098;-90
2021/06/08 04:02:42;;;;;;;27.20;22.42;;;;;;;17.62;73.27;93894.41;6080409;23;20314;-89
2021/06/08 04:05:37;;;;;;;45.25;31.10;;;;;;;17.78;75.41;93918.63;5942520;23;20032;-90
2021/06/08 04:08:16;;;;;;;31.73;24.45;;;;;;;17.92;73.93;93920.97;5938089;23;20020;-90
2021/06/08 04:10:50;;;;;;;27.30;23.05;;;;;;;17.89;72.99;93873.50;5852242;23;20019;-90
2021/06/08 04:13:30;;;;;;;27.60;22.52;;;;;;;18.02;72.04;93877.78;5877566;23;20111;-90
2021/06/08 04:16:15;;;;;;;;;;;;;;;;;;;;;
2021/06/08 04:19:23;;;;;;;;;;;;;;;;;;;;;
2021/06/08 04:22:16;;;;;;;;;;;;;;;;;;;;;
2021/06/08 04:25:40;;;;;;;115.15;32.00;;;;;;;18.24;70.89;93863.97;6093160;23;20018;-88
2021/06/08 04:28:27;;;;;;;117.63;32.35;;;;;;;18.08;72.15;93881.81;6034108;23;20018;-88
2021/06/08 04:31:09;;;;;;;36.95;29.35;;;;;;;18.22;72.19;93902.88;6028384;23;20010;-88
2021/06/08 04:33:45;;;;;;;50.15;27.20;;;;;;;18.14;72.82;93917.91;6106432;23;20050;-87
2021/06/08 04:36:51;;;;;;;85.32;31.52;;;;;;;17.44;74.43;93874.28;6062511;23;20045;-88
2021/06/08 04:39:35;;;;;;;;;;;;;;;;;;;;;
2021/06/08 04:45:31;;;;;;;46.17;31.13;;;;;;;17.64;74.35;93873.44;5895519;23;20079;-88
2021/06/08 04:48:25;;;;;;;82.13;33.80;;;;;;;17.68;74.68;93877.06;5974447;23;20553;-88
2021/06/08 04:51:29;;;;;;;38.08;30.38;;;;;;;17.97;74.25;93896.72;5932903;23;20096;-88
2021/06/08 04:53:58;;;;;;;37.80;29.30;;;;;;;18.40;73.46;93909.56;6041708;23;20027;-88
2021/06/08 04:56:48;;;;;;;34.45;28.30;;;;;;;18.32;71.35;93908.56;5999877;23;20288;-88
2021/06/08 05:03:17;;;;;;;;;;;;;;;;;;;;;
2021/06/08 05:06:00;;;;;;;40.58;29.90;;;;;;;18.74;70.40;93903.78;6027067;23;20077;-88
2021/06/08 05:08:50;;;;;;;39.75;29.67;;;;;;;18.91;69.55;93918.84;5975546;23;20023;-90
2021/06/08 05:11:44;;;;;;;39.65;31.02;;;;;;;18.70;70.09;93881.50;6070388;23;20477;-87
2021/06/08 05:14:12;;;;;;;41.30;30.90;;;;;;;18.85;71.31;93925.53;6081695;23;20037;-87
2021/06/08 05:16:41;;;;;;;34.03;28.17;;;;;;;19.34;69.20;93912.81;6108499;23;20109;-85
2021/06/08 05:19:08;;;;;;;38.67;30.20;;;;;;;19.62;66.31;93904.78;6079417;23;20025;-88
2021/06/08 05:21:36;;;;;;;33.92;28.83;;;;;;;19.97;66.13;93915.69;6056482;23;20037;-87
2021/06/08 05:24:03;;;;;;;33.38;29.08;;;;;;;20.75;63.99;93939.91;6081092;23;20086;-83
2021/06/08 05:26:29;;;;;;;35.00;28.13;;;;;;;21.25;61.71;93941.03;6101102;23;20022;-90
2021/06/08 05:28:55;;;;;;;33.50;28.23;;;;;;;22.00;59.30;93934.13;6083011;23;20022;-83
2021/06/08 05:31:21;;;;;;;34.40;27.67;;;;;;;22.67;56.76;93933.75;6116013;23;20020;-85
2021/06/08 05:33:47;;;;;;;28.65;25.63;;;;;;;23.60;54.12;93940.13;6112113;23;20193;-88
2021/06/08 05:36:13;;;;;;;31.60;27.05;;;;;;;24.16;51.48;93925.72;6080974;23;20022;-85
2021/06/08 05:38:40;;;;;;;35.22;26.73;;;;;;;24.66;49.80;93926.19;6095367;23;20021;-88
2021/06/08 05:41:14;;;;;;;31.40;28.15;;;;;;;24.63;50.25;93926.97;6114650;23;20412;-89
2021/06/08 05:43:42;;;;;;;36.38;26.88;;;;;;;24.98;49.38;93935.34;6114626;23;20018;-87
2021/06/08 05:46:10;;;;;;;31.85;26.35;;;;;;;25.36;48.25;93936.78;6104882;23;20076;-86
2021/06/08 05:48:36;;;;;;;30.15;27.02;;;;;;;25.53;47.89;93929.88;6109951;23;20006;-89
2021/06/08 05:51:03;;;;;;;34.40;26.65;;;;;;;25.92;46.64;93927.38;6107692;23;20045;-84
2021/06/08 05:53:36;;;;;;;34.35;26.85;;;;;;;25.95;46.33;93930.09;6108306;23;20049;-84
2021/06/08 05:56:04;;;;;;;31.83;27.27;;;;;;;25.79;46.91;93921.53;6108981;23;20109;-83
2021/06/08 05:58:33;;;;;;;27.58;24.63;;;;;;;27.09;44.73;93920.19;6108824;23;20097;-87
2021/06/08 06:01:00;;;;;;;28.13;25.27;;;;;;;27.19;44.02;93907.78;6102752;23;20016;-88
2021/06/08 06:03:27;;;;;;;32.17;25.08;;;;;;;28.16;41.42;93923.38;6107340;23;20006;-90
2021/06/08 06:05:55;;;;;;;25.90;23.05;;;;;;;29.14;40.21;93919.19;6104571;23;20076;-91
2021/06/08 06:08:24;;;;;;;25.08;22.48;;;;;;;29.36;39.66;93919.03;6102152;23;20317;-87
2021/06/08 06:10:52;;;;;;;25.30;22.08;;;;;;;29.48;39.09;93918.50;6102567;23;20101;-87
2021/06/08 06:13:30;;;;;;;24.15;21.67;;;;;;;29.69;38.73;93927.22;6103358;23;20022;-88
2021/06/08 06:15:56;;;;;;;25.77;23.13;;;;;;;29.13;39.41;93917.66;6105722;23;20013;-85
2021/06/08 06:18:25;;;;;;;27.25;24.48;;;;;;;28.49;41.29;93930.19;6106686;23;20005;-86
2021/06/08 06:20:55;;;;;;;25.90;23.40;;;;;;;28.19;42.01;93930.75;6096475;23;20048;-86
2021/06/08 06:23:23;;;;;;;28.05;24.38;;;;;;;27.63;41.95;93929.00;6112095;23;20183;-86
2021/06/08 06:25:50;;;;;;;29.35;25.27;;;;;;;27.21;43.33;93932.59;6109480;23;20025;-87
2021/06/08 06:28:20;;;;;;;27.80;24.95;;;;;;;27.24;43.04;93927.16;6117742;23;20026;-85
2021/06/08 06:30:47;;;;;;;28.80;24.55;;;;;;;27.29;42.94;93932.19;6113147;23;20013;-86
2021/06/08 06:33:14;;;;;;;32.22;23.35;;;;;;;27.14;42.77;93925.22;6110080;23;20437;-87
2021/06/08 06:35:40;;;;;;;27.98;23.38;;;;;;;26.89;43.35;93930.66;6109354;23;20460;-86
2021/06/08 06:38:08;;;;;;;24.95;22.17;;;;;;;27.32;43.29;93927.94;6110729;23;20018;-86
2021/06/08 06:40:36;;;;;;;28.98;22.27;;;;;;;27.44;42.96;93931.00;6099636;23;20080;-84
2021/06/08 06:43:05;;;;;;;27.88;21.90;;;;;;;27.45;42.30;93921.69;6108707;23;20467;-85
2021/06/08 06:45:35;;;;;;;25.08;22.23;;;;;;;27.27;42.45;93920.19;6109580;23;20002;-87
2021/06/08 06:48:02;;;;;;;24.20;21.73;;;;;;;27.61;42.64;93928.66;6106949;23;20025;-87
2021/06/08 06:50:33;;;;;;;25.13;21.65;;;;;;;28.53;40.70;93923.56;6102653;23;20104;-86
2021/06/08 06:52:59;;;;;;;24.23;21.02;;;;;;;29.23;38.65;93924.16;6112562;23;21021;-86
2021/06/08 06:55:27;;;;;;;22.42;19.95;;;;;;;28.82;40.10;93916.75;6115196;23;20049;-85
2021/06/08 06:57:54;;;;;;;17.70;15.90;;;;;;;30.73;36.86;93913.03;6111865;23;20001;-87
2021/06/08 07:00:21;;;;;;;18.52;16.50;;;;;;;31.85;34.82;93912.28;6067826;23;20056;-87
2021/06/08 07:02:53;;;;;;;17.17;15.40;;;;;;;32.69;33.26;93897.22;6110167;23;20057;-87
2021/06/08 07:05:22;;;;;;;18.80;16.85;;;;;;;32.57;33.23;93912.31;6106131;23;20100;-86
2021/06/08 07:07:49;;;;;;;17.35;15.65;;;;;;;32.27;32.83;93901.66;6109891;23;20219;-86
2021/06/08 07:10:17;;;;;;;19.58;14.52;;;;;;;32.53;33.09;93898.72;6116460;23;20001;-86
2021/06/08 07:12:46;;;;;;;17.08;15.32;;;;;;;32.62;33.61;93900.84;6113357;23;20057;-86
2021/06/08 07:15:14;;;;;;;23.30;15.75;;;;;;;32.48;33.26;93901.97;6107454;23;20367;-87
2021/06/08 07:17:39;;;;;;;17.13;15.32;;;;;;;32.43;33.46;93890.75;6112096;23;20072;-88
2021/06/08 07:20:07;;;;;;;17.13;15.50;;;;;;;32.42;33.26;93900.16;6111597;23;20028;-88
2021/06/08 07:22:38;;;;;;;20.13;15.75;;;;;;;34.14;31.79;93894.22;6118752;23;20013;-87
2021/06/08 07:25:05;;;;;;;17.40;15.60;;;;;;;35.82;29.41;93901.41;6120989;23;20002;-87
2021/06/08 07:27:31;;;;;;;17.75;15.98;;;;;;;36.95;26.95;93899.88;6112259;23;20081;-89
2021/06/08 07:29:58;;;;;;;17.80;15.23;;;;;;;37.37;26.50;93897.41;6114480;23;20108;-86
2021/06/08 07:32:37;;;;;;;18.92;14.98;;;;;;;37.18;25.47;93899.38;6081498;23;20025;-88
2021/06/08 07:35:18;;;;;;;15.75;13.73;;;;;;;38.49;24.66;93901.19;6081957;23;20022;-86
2021/06/08 07:37:47;;;;;;;14.45;12.05;;;;;;;39.21;23.89;93883.53;6101356;23;20021;-86
2021/06/08 07:40:20;;;;;;;12.63;10.95;;;;;;;39.96;22.44;93905.44;6112106;23;20468;-89
2021/06/08 07:42:51;;;;;;;14.15;11.35;;;;;;;39.06;23.77;93906.78;6123451;23;20467;-87
2021/06/08 07:45:23;;;;;;;11.48;8.57;;;;;;;38.80;23.53;93898.94;6109090;23;20021;-85
2021/06/08 07:47:53;;;;;;;11.27;8.40;;;;;;;39.61;21.92;93905.25;6113428;23;20009;-87
2021/06/08 07:50:21;;;;;;;9.95;8.95;;;;;;;39.48;22.92;93906.72;6109479;23;20358;-87
2021/06/08 07:52:51;;;;;;;10.65;9.75;;;;;;;40.73;21.54;93907.28;6110349;23;20464;-88
2021/06/08 07:55:17;;;;;;;8.27;7.28;;;;;;;41.27;20.55;93911.38;6110536;23;20037;-85
2021/06/08 07:57:45;;;;;;;7.63;6.95;;;;;;;41.06;20.65;93914.13;6123553;23;20470;-85
2021/06/08 08:00:12;;;;;;;12.57;6.88;;;;;;;41.72;20.13;93904.44;6111833;23;20416;-87
2021/06/08 08:02:38;;;;;;;9.85;8.10;;;;;;;42.12;20.48;93912.72;6109396;23;20513;-86
2021/06/08 08:05:09;;;;;;;7.90;7.05;;;;;;;43.08;18.56;93913.09;6109386;23;20338;-87
2021/06/08 08:07:35;;;;;;;6.40;4.57;;;;;;;42.99;17.15;93923.63;6108622;23;20049;-87
2021/06/08 08:10:01;;;;;;;4.85;4.43;;;;;;;42.39;18.56;93921.81;6110426;23;20010;-87
2021/06/08 08:12:27;;;;;;;9.95;5.93;;;;;;;42.47;18.54;93917.38;6108482;23;20014;-86
2021/06/08 08:14:54;;;;;;;6.60;5.90;;;;;;;42.13;19.04;93922.56;6111600;23;20025;-89
2021/06/08 08:17:24;;;;;;;7.20;5.10;;;;;;;42.73;17.80;93923.66;6108217;23;20432;-86
2021/06/08 08:19:51;;;;;;;5.75;4.05;;;;;;;42.91;18.19;93922.56;6094681;23;20125;-87
2021/06/08 08:22:16;;;;;;;5.18;4.68;;;;;;;43.44;17.92;93919.13;6118896;23;20457;-88
2021/06/08 08:24:44;;;;;;;6.90;4.53;;;;;;;43.80;17.94;93923.84;6112594;23;20057;-86
2021/06/08 08:27:10;;;;;;;8.38;5.93;;;;;;;44.12;17.36;93929.28;6105630;23;20022;-88
2021/06/08 08:29:39;;;;;;;5.20;4.60;;;;;;;43.78;17.48;93920.81;6108320;23;20087;-87
2021/06/08 08:32:06;;;;;;;5.50;3.70;;;;;;;42.63;18.08;93914.72;6078840;23;20098;-87
2021/06/08 08:34:32;;;;;;;3.75;3.03;;;;;;;41.30;17.98;93913.94;6115826;23;20029;-89
2021/06/08 08:36:57;;;;;;;4.38;3.60;;;;;;;41.12;18.74;93919.75;6121617;23;20006;-85
2021/06/08 08:39:22;;;;;;;3.25;2.83;;;;;;;40.23;19.84;93918.28;6111698;23;20089;-86
2021/06/08 08:41:52;;;;;;;6.30;3.92;;;;;;;39.55;20.80;93920.94;6107910;23;20018;-84
2021/06/08 08:44:17;;;;;;;8.70;4.47;;;;;;;39.22;20.44;93909.16;6115524;23;20149;-84
2021/06/08 08:46:46;;;;;;;4.72;3.45;;;;;;;39.48;20.75;93920.56;6117976;23;20064;-86
2021/06/08 08:49:12;;;;;;;6.00;4.00;;;;;;;40.29;19.72;93902.53;6106571;23;20083;-84
2021/06/08 08:51:38;;;;;;;6.53;5.20;;;;;;;40.87;19.41;93898.19;6111689;23;20457;-85
2021/06/08 08:54:05;;;;;;;6.60;5.18;;;;;;;40.69;20.71;93893.66;6112995;23;20104;-85
2021/06/08 08:56:42;;;;;;;7.35;6.68;;;;;;;38.96;20.72;93904.09;6112887;23;20040;-87
2021/06/08 08:59:11;;;;;;;13.65;5.38;;;;;;;39.38;20.83;93884.69;6115442;23;20045;-84
2021/06/08 09:01:38;;;;;;;5.75;5.25;;;;;;;38.66;20.93;93896.09;6111122;23;20006;-85
2021/06/08 09:04:06;;;;;;;4.40;4.00;;;;;;;38.71;21.41;93893.41;6112692;23;20311;-83
2021/06/08 09:06:34;;;;;;;5.05;4.55;;;;;;;38.80;21.32;93887.88;6122182;23;19998;-88
2021/06/08 09:09:01;;;;;;;5.78;5.25;;;;;;;38.75;21.22;93887.75;6109294;23;20024;-87
2021/06/08 09:11:28;;;;;;;7.93;5.68;;;;;;;38.17;21.48;93880.53;6103841;23;20017;-85
2021/06/08 09:13:53;;;;;;;9.38;6.20;;;;;;;36.64;23.01;93872.41;6110221;23;20480;-87
2021/06/08 09:16:20;;;;;;;8.35;6.07;;;;;;;35.53;25.88;93869.38;6108257;23;20018;-84
2021/06/08 09:18:46;;;;;;;6.68;5.97;;;;;;;35.32;25.41;93875.63;6121358;23;20589;-85
2021/06/08 09:21:18;;;;;;;8.60;6.53;;;;;;;34.40;25.89;93867.59;6108705;23;20076;-86
2021/06/08 09:23:43;;;;;;;7.63;6.90;;;;;;;33.99;27.09;93860.19;6109524;23;20013;-85
2021/06/08 09:26:17;;;;;;;9.35;6.82;;;;;;;33.72;26.93;93857.81;6107456;23;20512;-85
2021/06/08 09:28:43;;;;;;;7.70;6.60;;;;;;;33.62;27.73;93858.09;6117983;23;20032;-85
2021/06/08 09:31:19;;;;;;;7.35;6.65;;;;;;;33.82;27.85;93862.22;6100371;23;20342;-84
2021/06/08 09:33:46;;;;;;;11.35;7.00;;;;;;;33.78;28.29;93855.28;6104825;23;20071;-84
2021/06/08 09:36:12;;;;;;;11.68;6.43;;;;;;;33.62;27.31;93853.38;6103506;23;20515;-83
2021/06/08 09:38:39;;;;;;;11.73;6.70;;;;;;;33.05;28.22;93849.38;6102007;23;20242;-82
2021/06/08 09:41:19;;;;;;;7.28;5.85;;;;;;;31.83;27.88;93827.19;6101578;23;20047;-82
2021/06/08 09:43:47;;;;;;;6.55;4.78;;;;;;;31.13;28.73;93843.75;6116879;23;20020;-83
2021/06/08 09:46:13;;;;;;;5.10;4.60;;;;;;;31.19;29.52;93833.91;6104118;23;20009;-83
2021/06/08 09:48:52;;;;;;;6.07;5.57;;;;;;;29.52;31.67;93846.47;6116709;23;20069;-83
2021/06/08 09:51:18;;;;;;;6.32;5.63;;;;;;;29.19;33.09;93826.22;6104289;23;20034;-81
2021/06/08 09:53:43;;;;;;;9.10;5.85;;;;;;;29.91;32.38;93826.19;6093581;23;20104;-83
2021/06/08 09:56:10;;;;;;;9.35;5.88;;;;;;;29.95;31.39;93832.38;6112559;23;20026;-83
2021/06/08 09:58:38;;;;;;;10.02;6.88;;;;;;;30.20;32.67;93830.06;6114624;23;20021;-91
2021/06/08 10:01:06;;;;;;;9.57;6.80;;;;;;;29.93;31.87;93827.31;6109733;23;20005;-86
2021/06/08 10:03:35;;;;;;;8.07;6.80;;;;;;;30.08;32.44;93811.53;6106690;23;20628;-81
2021/06/08 10:06:11;;;;;;;9.07;7.18;;;;;;;29.75;33.21;93810.44;6108640;23;20014;-83
2021/06/08 10:08:38;;;;;;;12.50;8.07;;;;;;;30.28;33.42;93803.47;6109941;23;20025;-87
2021/06/08 10:11:14;;;;;;;15.20;9.32;;;;;;;29.28;33.25;93815.63;6110728;23;20021;-84
2021/06/08 10:13:42;;;;;;;11.25;9.05;;;;;;;28.87;34.42;93793.16;6113990;23;20440;-84
2021/06/08 10:16:09;;;;;;;8.32;7.47;;;;;;;29.30;33.88;93807.06;6109875;23;20029;-85
2021/06/08 10:18:50;;;;;;;11.32;7.70;;;;;;;28.66;35.42;93813.13;6118057;23;20031;-89
2021/06/08 10:21:31;;;;;;;8.48;7.63;;;;;;;28.88;34.46;93810.25;6106513;23;20045;-84
2021/06/08 10:24:08;;;;;;;11.75;6.60;;;;;;;28.62;33.10;93817.84;6102932;23;20032;-86
2021/06/08 10:26:38;;;;;;;6.93;6.25;;;;;;;28.51;34.03;93816.38;6111393;23;20080;-86
2021/06/08 10:29:10;;;;;;;13.45;7.93;;;;;;;28.40;33.93;93811.78;6108919;23;20021;-89
2021/06/08 10:31:38;;;;;;;9.18;5.85;;;;;;;28.44;34.13;93811.78;6115931;23;20044;-88
2021/06/08 10:34:06;;;;;;;6.80;6.18;;;;;;;28.37;32.85;93811.84;6107969;23;20475;-85
2021/06/08 10:36:36;;;;;;;6.82;5.35;;;;;;;28.52;32.95;93801.63;6121843;23;20010;-85
2021/06/08 10:39:06;;;;;;;6.65;5.43;;;;;;;28.54;32.92;93802.75;6117240;23;20029;-81
2021/06/08 10:41:34;;;;;;;6.68;5.70;;;;;;;28.83;34.38;93801.31;6107624;23;20014;-86
2021/06/08 10:44:01;;;;;;;7.30;5.53;;;;;;;28.73;31.18;93785.91;6097467;23;20029;-85
2021/06/08 10:46:26;;;;;;;5.50;5.00;;;;;;;28.65;31.82;93792.53;6116954;23;20014;-84
2021/06/08 10:48:52;;;;;;;5.80;5.20;;;;;;;28.53;32.65;93787.63;6107810;23;20202;-83
2021/06/08 10:51:21;;;;;;;6.75;6.25;;;;;;;28.42;33.77;93778.78;6108737;23;20045;-87
2021/06/08 10:53:57;;;;;;;7.47;6.88;;;;;;;28.35;34.59;93786.97;6108336;23;20480;-85
2021/06/08 10:56:33;;;;;;;8.13;6.75;;;;;;;28.48;33.85;93777.19;6097527;23;20141;-87
2021/06/08 10:59:01;;;;;;;9.05;7.40;;;;;;;28.66;33.93;93779.72;6106242;23;20026;-86
2021/06/08 11:01:40;;;;;;;9.68;7.47;;;;;;;28.61;32.54;93777.44;6116862;23;20474;-86
2021/06/08 11:04:12;;;;;;;6.75;6.25;;;;;;;28.95;33.92;93777.53;6107122;23;20586;-84
2021/06/08 11:06:40;;;;;;;6.75;6.15;;;;;;;29.28;32.00;93785.69;6111250;23;20006;-88
2021/06/08 11:09:15;;;;;;;11.15;5.18;;;;;;;29.41;34.41;93798.81;6107165;23;20018;-86
2021/06/08 11:11:48;;;;;;;9.38;4.30;;;;;;;29.04;36.34;93808.50;6093819;23;20453;-84
2021/06/08 11:14:32;;;;;;;8.00;4.78;;;;;;;28.69;36.45;93817.75;6114485;23;20089;-83
2021/06/08 11:17:05;;;;;;;7.32;4.38;;;;;;;28.19;37.88;93822.06;6114762;23;20394;-85
2021/06/08 11:19:54;;;;;;;6.22;4.53;;;;;;;28.00;38.39;93812.47;6108154;23;20014;-87
2021/06/08 11:22:42;;;;;;;4.47;4.05;;;;;;;27.69;38.70;93816.91;6109347;23;20013;-86
2021/06/08 11:25:28;;;;;;;4.88;4.47;;;;;;;27.19;38.82;93820.97;6118465;23;20297;-83
2021/06/08 11:28:07;;;;;;;8.35;4.05;;;;;;;26.93;39.17;93820.25;6113625;23;20635;-86
2021/06/08 11:30:36;;;;;;;4.00;3.60;;;;;;;26.92;40.65;93817.94;6111304;23;20096;-89
2021/06/08 11:33:06;;;;;;;4.55;4.15;;;;;;;27.02;39.87;93823.34;6111494;23;20453;-84
2021/06/08 11:35:43;;;;;;;6.55;4.75;;;;;;;27.18;39.57;93831.03;6110663;23;20479;-88
2021/06/08 11:38:25;;;;;;;5.55;4.50;;;;;;;27.05;39.24;93817.13;6084631;23;20026;-84
2021/06/08 11:40:58;;;;;;;6.35;4.47;;;;;;;27.20;39.46;93814.38;6102395;23;20037;-88
2021/06/08 11:43:23;;;;;;;5.55;3.92;;;;;;;27.22;39.46;93817.47;6107459;23;20022;-87
2021/06/08 11:46:11;;;;;;;11.32;5.15;;;;;;;27.19;38.79;93815.53;6122343;23;20016;-86
2021/06/08 11:48:43;;;;;;;6.40;4.45;;;;;;;27.36;38.44;93806.56;6109811;23;20445;-86
2021/06/08 11:51:15;;;;;;;12.23;4.80;;;;;;;27.38;38.04;93813.13;6108197;23;20824;-87
2021/06/08 11:54:36;;;;;;;8.05;4.72;;;;;;;27.64;38.14;93805.69;6113758;23;20101;-87
2021/06/08 11:57:04;;;;;;;7.45;3.92;;;;;;;27.64;37.40;93795.59;6051984;23;20402;-87
2021/06/08 11:59:43;;;;;;;4.40;4.00;;;;;;;27.58;37.44;93802.63;6108445;23;20089;-85
2021/06/08 12:02:25;;;;;;;9.23;4.20;;;;;;;27.76;38.40;93805.25;6113197;23;20029;-89
2021/06/08 12:05:21;;;;;;;6.07;3.30;;;;;;;27.75;36.63;93790.13;6107531;23;20018;-85
2021/06/08 12:07:47;;;;;;;4.72;3.85;;;;;;;27.77;36.41;93788.53;6106994;23;20014;-86
2021/06/08 12:10:16;;;;;;;7.97;4.45;;;;;;;27.86;37.01;93783.44;6115829;23;20012;-86
2021/06/08 12:12:47;;;;;;;4.50;3.70;;;;;;;27.98;36.23;93779.50;6119618;23;20006;-86
2021/06/08 12:15:30;;;;;;;4.85;4.20;;;;;;;28.09;36.74;93769.31;6105824;23;20041;-87
2021/06/08 12:17:56;;;;;;;4.15;3.75;;;;;;;28.16;36.17;93763.06;6111058;23;20018;-86
2021/06/08 12:20:22;;;;;;;4.65;3.97;;;;;;;28.19;35.62;93754.13;6110559;23;20023;-87
2021/06/08 12:22:48;;;;;;;3.75;3.45;;;;;;;28.05;35.53;93746.06;6110399;23;20191;-87
2021/06/08 12:25:16;;;;;;;4.40;3.80;;;;;;;27.98;36.64;93753.09;6109144;23;20332;-85
2021/06/08 12:27:44;;;;;;;4.47;3.97;;;;;;;28.18;36.43;93744.44;6121351;23;20041;-88
2021/06/08 12:30:13;;;;;;;5.28;4.38;;;;;;;28.58;36.23;93754.56;6108056;23;20021;-89
2021/06/08 12:32:39;;;;;;;5.20;3.92;;;;;;;28.57;34.62;93731.25;6111468;23;20010;-84
2021/06/08 12:35:19;;;;;;;3.53;3.30;;;;;;;28.42;34.73;93738.78;6114086;23;20041;-88
2021/06/08 12:37:45;;;;;;;4.35;3.95;;;;;;;28.32;35.51;93728.78;6113717;23;20018;-87
2021/06/08 12:40:15;;;;;;;4.75;4.28;;;;;;;28.31;36.14;93731.91;6106424;23;20002;-88
2021/06/08 12:42:40;;;;;;;4.80;3.80;;;;;;;28.16;36.83;93704.06;6111563;23;20010;-88
2021/06/08 12:45:06;;;;;;;4.85;4.40;;;;;;;28.62;36.28;93724.63;6108088;23;20258;-84
2021/06/08 12:47:33;;;;;;;6.63;4.05;;;;;;;28.53;35.76;93727.03;6112127;23;20097;-86
2021/06/08 12:50:05;;;;;;;5.28;4.53;;;;;;;28.13;37.12;93726.63;6108130;23;20037;-92
2021/06/08 12:52:30;;;;;;;5.93;4.75;;;;;;;27.84;37.34;93742.34;6108458;23;20069;-87
2021/06/08 12:54:56;;;;;;;6.90;4.50;;;;;;;27.99;38.26;93737.59;6105017;23;20258;-87
2021/06/08 12:57:27;;;;;;;5.57;4.57;;;;;;;28.11;37.26;93749.88;6121215;23;20006;-83
2021/06/08 12:59:59;;;;;;;7.13;4.22;;;;;;;27.97;36.09;93753.50;6106072;23;20453;-85
2021/06/08 13:02:29;;;;;;;6.38;4.20;;;;;;;27.54;36.34;93750.28;6093872;23;20024;-86
2021/06/08 13:04:58;;;;;;;4.43;4.13;;;;;;;27.53;37.02;93751.44;6107071;23;20020;-82
2021/06/08 13:07:28;;;;;;;6.97;3.28;;;;;;;27.56;37.73;93753.38;6108272;23;20017;-86
2021/06/08 13:10:00;;;;;;;4.35;2.80;;;;;;;27.74;37.28;93754.03;6121105;23;20010;-84
2021/06/08 13:12:38;;;;;;;3.20;2.80;;;;;;;27.74;37.21;93748.63;6107416;23;20068;-84
2021/06/08 13:15:06;;;;;;;6.05;3.42;;;;;;;27.93;36.95;93755.47;6108471;23;20022;-85
2021/06/08 13:17:32;;;;;;;4.22;3.28;;;;;;;27.97;36.18;93746.13;6108561;23;20016;-86
2021/06/08 13:19:59;;;;;;;5.72;3.38;;;;;;;28.16;35.21;93746.78;6112292;23;20014;-87
2021/06/08 13:22:27;;;;;;;5.13;3.30;;;;;;;28.32;35.78;93752.47;6116465;23;20042;-87
2021/06/08 13:24:58;;;;;;;3.60;2.80;;;;;;;28.44;36.21;93762.84;6121488;23;20488;-83
2021/06/08 13:27:26;;;;;;;3.30;2.97;;;;;;;28.29;34.67;93756.00;6106606;23;20073;-93
2021/06/08 13:29:54;;;;;;;3.80;3.50;;;;;;;28.11;34.31;93750.69;6110165;23;20154;-88
2021/06/08 13:32:29;;;;;;;5.15;3.58;;;;;;;28.25;35.01;93755.22;6107901;23;20022;-86
2021/06/08 13:35:10;;;;;;;6.43;3.97;;;;;;;28.04;34.27;93752.69;6108477;23;20473;-87
2021/06/08 13:37:43;;;;;;;4.45;3.63;;;;;;;27.75;35.43;93752.88;6114219;23;20025;-85
2021/06/08 13:40:16;;;;;;;5.10;3.80;;;;;;;28.05;35.22;93751.50;6076173;23;20725;-84
2021/06/08 13:42:54;;;;;;;4.07;3.78;;;;;;;28.13;34.10;93753.03;6119980;23;20025;-88
2021/06/08 13:45:31;;;;;;;3.63;3.22;;;;;;;28.18;35.40;93744.44;6106809;23;20361;-87
2021/06/08 13:48:16;;;;;;;5.80;4.15;;;;;;;28.28;34.64;93744.34;6110640;23;20064;-84
2021/06/08 13:50:42;;;;;;;4.03;3.72;;;;;;;28.39;33.25;93744.25;6112072;23;20474;-86
2021/06/08 13:53:18;;;;;;;5.15;3.63;;;;;;;28.56;34.19;93751.47;6036661;23;20025;-86
2021/06/08 13:55:57;;;;;;;4.90;3.60;;;;;;;28.79;34.14;93746.19;6099240;23;20013;-88
2021/06/08 14:01:22;;;;;;;4.80;3.33;;;;;;;29.08;32.55;93730.31;6116473;23;20093;-87
2021/06/08 14:04:08;;;;;;;5.35;3.60;;;;;;;29.21;32.96;93742.25;6106700;23;19998;-87
2021/06/08 14:06:35;;;;;;;5.93;3.97;;;;;;;29.01;31.77;93732.38;6095280;23;20159;-84
2021/06/08 14:09:07;;;;;;;6.32;5.00;;;;;;;28.42;32.29;93743.44;6107712;23;20029;-86
2021/06/08 14:11:39;;;;;;;7.35;5.32;;;;;;;27.03;38.42;93732.66;6111358;23;20057;-86
2021/06/08 14:14:06;;;;;;;8.25;5.45;;;;;;;25.95;40.59;93737.84;6095832;23;20026;-85
2021/06/08 14:16:32;;;;;;;6.35;5.25;;;;;;;25.08;42.32;93761.59;6106760;23;20010;-85
2021/06/08 14:19:10;;;;;;;8.80;5.53;;;;;;;24.78;43.81;93751.00;6106184;23;20001;-84
2021/06/08 14:21:36;;;;;;;8.40;5.15;;;;;;;24.00;44.91;93738.91;6121571;23;20326;-85
2021/06/08 14:24:02;;;;;;;6.03;5.53;;;;;;;23.93;44.43;93755.06;6089475;23;20085;-84
2021/06/08 14:26:29;;;;;;;6.03;5.53;;;;;;;23.73;45.03;93744.47;6105819;23;20020;-85
2021/06/08 14:28:59;;;;;;;7.55;5.88;;;;;;;23.63;45.73;93761.34;6107925;23;20539;-86
2021/06/08 14:31:28;;;;;;;6.30;5.68;;;;;;;23.40;45.33;93736.44;6108535;23;20010;-86
2021/06/08 14:33:54;;;;;;;6.15;5.65;;;;;;;23.31;45.47;93773.69;6111500;23;20141;-85
2021/06/08 14:36:19;;;;;;;6.30;5.78;;;;;;;23.38;45.84;93762.97;6108238;23;20022;-85